sensor_id;sensor_type;location;lat;lon;timestamp;P1;durP1;ratioP1;P2;durP2;ratioP2
41263;SDS011;26998;48.714;9.414;2023-04-03T00:01:51;4.18;;;3.00;;
41263;SDS011;26998;48.714;9.414;2023-04-03T00:04:18;4.38;;;3.25;;
41263;SDS011;26998;48.714;9.414;2023-04-03T00:06:45;4.17;;;3.20;;
41263;SDS011;26998;48.714;9.414;2023-04-03T00:09:11;7.43;;;2.75;;
41263;SDS011;26998;48.714;9.414;2023-04-03T00:11:40;3.70;;;3.40;;
41263;SDS011;26998;48.714;9.414;2023-04-03T00:14:06;3.45;;;3.05;;
41263;SDS011;26998;48.714;9.414;2023-04-03T00:16:33;3.88;;;2.97;;
41263;SDS011;26998;48.714;9.414;2023-04-03T00:18:59;5.55;;;3.35;;
41263;SDS011;26998;48.714;9.414;2023-04-03T00:21:26;3.85;;;3.25;;
41263;SDS011;26998;48.714;9.414;2023-04-03T00:23:52;4.85;;;3.88;;
41263;SDS011;26998;48.714;9.414;2023-04-03T00:26:19;4.00;;;3.13;;
41263;SDS011;26998;48.714;9.414;2023-04-03T00:28:45;3.88;;;3.17;;
41263;SDS011;26998;48.714;9.414;2023-04-03T00:31:13;3.90;;;2.90;;
41263;SDS011;26998;48.714;9.414;2023-04-03T00:33:41;4.10;;;3.30;;
41263;SDS011;26998;48.714;9.414;2023-04-03T00:36:08;3.97;;;3.10;;
41263;SDS011;26998;48.714;9.414;2023-04-03T00:38:36;3.53;;;2.72;;
41263;SDS011;26998;48.714;9.414;2023-04-03T00:41:03;4.05;;;3.25;;
41263;SDS011;26998;48.714;9.414;2023-04-03T00:43:30;4.97;;;3.30;;
41263;SDS011;26998;48.714;9.414;2023-04-03T00:45:57;3.80;;;3.27;;
41263;SDS011;26998;48.714;9.414;2023-04-03T00:50:53;6.00;;;3.70;;
41263;SDS011;26998;48.714;9.414;2023-04-03T00:56:27;5.30;;;2.92;;
41263;SDS011;26998;48.714;9.414;2023-04-03T00:59:30;7.57;;;3.42;;
41263;SDS011;26998;48.714;9.414;2023-04-03T01:01:54;3.92;;;3.08;;
41263;SDS011;26998;48.714;9.414;2023-04-03T01:04:29;3.47;;;3.17;;
41263;SDS011;26998;48.714;9.414;2023-04-03T01:06:59;3.97;;;3.10;;
41263;SDS011;26998;48.714;9.414;2023-04-03T01:09:30;7.88;;;3.70;;
41263;SDS011;26998;48.714;9.414;2023-04-03T01:14:58;4.32;;;3.50;;
41263;SDS011;26998;48.714;9.414;2023-04-03T01:17:31;4.15;;;3.20;;
41263;SDS011;26998;48.714;9.414;2023-04-03T01:25:46;5.43;;;3.40;;
41263;SDS011;26998;48.714;9.414;2023-04-03T01:28:28;6.80;;;2.88;;
41263;SDS011;26998;48.714;9.414;2023-04-03T01:31:12;7.45;;;3.30;;
41263;SDS011;26998;48.714;9.414;2023-04-03T01:33:40;3.40;;;3.05;;
41263;SDS011;26998;48.714;9.414;2023-04-03T01:36:07;4.00;;;3.03;;
41263;SDS011;26998;48.714;9.414;2023-04-03T01:38:36;5.15;;;3.35;;
41263;SDS011;26998;48.714;9.414;2023-04-03T01:41:02;3.50;;;3.05;;
41263;SDS011;26998;48.714;9.414;2023-04-03T01:43:29;5.57;;;3.42;;
41263;SDS011;26998;48.714;9.414;2023-04-03T01:45:55;3.90;;;3.00;;
41263;SDS011;26998;48.714;9.414;2023-04-03T01:48:22;4.17;;;3.57;;
41263;SDS011;26998;48.714;9.414;2023-04-03T01:50:49;5.15;;;3.60;;
41263;SDS011;26998;48.714;9.414;2023-04-03T01:53:15;4.40;;;2.95;;
41263;SDS011;26998;48.714;9.414;2023-04-03T01:55:42;3.83;;;3.20;;
41263;SDS011;26998;48.714;9.414;2023-04-03T01:58:09;3.05;;;2.83;;
41263;SDS011;26998;48.714;9.414;2023-04-03T02:00:36;4.05;;;3.13;;
41263;SDS011;26998;48.714;9.414;2023-04-03T02:03:03;4.20;;;3.22;;
41263;SDS011;26998;48.714;9.414;2023-04-03T02:05:29;3.35;;;2.75;;
41263;SDS011;26998;48.714;9.414;2023-04-03T02:07:56;4.32;;;3.58;;
41263;SDS011;26998;48.714;9.414;2023-04-03T02:10:22;4.13;;;3.05;;
41263;SDS011;26998;48.714;9.414;2023-04-03T02:12:49;4.45;;;3.05;;
41263;SDS011;26998;48.714;9.414;2023-04-03T02:15:15;4.65;;;3.30;;
41263;SDS011;26998;48.714;9.414;2023-04-03T02:17:42;5.28;;;3.03;;
41263;SDS011;26998;48.714;9.414;2023-04-03T02:20:08;5.00;;;3.30;;
41263;SDS011;26998;48.714;9.414;2023-04-03T02:22:35;6.00;;;2.65;;
41263;SDS011;26998;48.714;9.414;2023-04-03T02:25:02;5.22;;;2.85;;
41263;SDS011;26998;48.714;9.414;2023-04-03T02:27:29;4.78;;;3.40;;
41263;SDS011;26998;48.714;9.414;2023-04-03T02:29:56;6.68;;;2.72;;
41263;SDS011;26998;48.714;9.414;2023-04-03T02:32:22;4.60;;;3.15;;
41263;SDS011;26998;48.714;9.414;2023-04-03T02:34:49;8.00;;;3.20;;
41263;SDS011;26998;48.714;9.414;2023-04-03T02:37:15;4.82;;;3.10;;
41263;SDS011;26998;48.714;9.414;2023-04-03T02:39:42;4.80;;;3.33;;
41263;SDS011;26998;48.714;9.414;2023-04-03T02:42:08;5.40;;;3.03;;
41263;SDS011;26998;48.714;9.414;2023-04-03T02:44:35;3.35;;;2.92;;
41263;SDS011;26998;48.714;9.414;2023-04-03T02:47:02;4.95;;;2.88;;
41263;SDS011;26998;48.714;9.414;2023-04-03T02:49:28;6.15;;;3.33;;
41263;SDS011;26998;48.714;9.414;2023-04-03T02:51:55;4.03;;;3.10;;
41263;SDS011;26998;48.714;9.414;2023-04-03T02:54:21;4.03;;;2.60;;
41263;SDS011;26998;48.714;9.414;2023-04-03T02:56:48;4.70;;;2.80;;
41263;SDS011;26998;48.714;9.414;2023-04-03T02:59:15;7.90;;;2.78;;
41263;SDS011;26998;48.714;9.414;2023-04-03T03:01:42;3.10;;;2.80;;
41263;SDS011;26998;48.714;9.414;2023-04-03T03:04:08;3.35;;;2.85;;
41263;SDS011;26998;48.714;9.414;2023-04-03T03:06:35;3.45;;;3.00;;
41263;SDS011;26998;48.714;9.414;2023-04-03T03:09:01;5.57;;;2.97;;
41263;SDS011;26998;48.714;9.414;2023-04-03T03:11:29;3.42;;;3.05;;
41263;SDS011;26998;48.714;9.414;2023-04-03T03:13:56;4.13;;;2.92;;
41263;SDS011;26998;48.714;9.414;2023-04-03T03:16:23;3.60;;;2.90;;
41263;SDS011;26998;48.714;9.414;2023-04-03T03:18:49;4.85;;;3.45;;
41263;SDS011;26998;48.714;9.414;2023-04-03T03:21:16;3.10;;;2.80;;
41263;SDS011;26998;48.714;9.414;2023-04-03T03:23:42;3.63;;;2.80;;
41263;SDS011;26998;48.714;9.414;2023-04-03T03:26:10;3.08;;;2.78;;
41263;SDS011;26998;48.714;9.414;2023-04-03T03:28:38;5.05;;;2.80;;
41263;SDS011;26998;48.714;9.414;2023-04-03T03:31:06;6.50;;;2.90;;
41263;SDS011;26998;48.714;9.414;2023-04-03T03:33:33;5.22;;;3.20;;
41263;SDS011;26998;48.714;9.414;2023-04-03T03:36:00;2.97;;;2.67;;
41263;SDS011;26998;48.714;9.414;2023-04-03T03:38:27;3.10;;;2.60;;
41263;SDS011;26998;48.714;9.414;2023-04-03T03:40:53;2.65;;;2.40;;
41263;SDS011;26998;48.714;9.414;2023-04-03T03:43:20;2.97;;;2.65;;
41263;SDS011;26998;48.714;9.414;2023-04-03T03:45:49;5.07;;;3.08;;
41263;SDS011;26998;48.714;9.414;2023-04-03T03:48:17;5.35;;;3.55;;
41263;SDS011;26998;48.714;9.414;2023-04-03T03:50:45;5.47;;;2.53;;
41263;SDS011;26998;48.714;9.414;2023-04-03T03:53:12;3.15;;;2.85;;
41263;SDS011;26998;48.714;9.414;2023-04-03T03:55:39;4.07;;;2.70;;
41263;SDS011;26998;48.714;9.414;2023-04-03T03:58:05;4.13;;;3.10;;
41263;SDS011;26998;48.714;9.414;2023-04-03T04:00:32;3.17;;;2.83;;
41263;SDS011;26998;48.714;9.414;2023-04-03T04:02:59;3.30;;;2.65;;
41263;SDS011;26998;48.714;9.414;2023-04-03T04:05:25;4.60;;;2.50;;
41263;SDS011;26998;48.714;9.414;2023-04-03T04:07:52;4.25;;;3.22;;
41263;SDS011;26998;48.714;9.414;2023-04-03T04:10:18;3.33;;;3.03;;
41263;SDS011;26998;48.714;9.414;2023-04-03T04:12:45;3.65;;;3.30;;
41263;SDS011;26998;48.714;9.414;2023-04-03T04:15:12;3.15;;;2.40;;
41263;SDS011;26998;48.714;9.414;2023-04-03T04:17:38;3.67;;;2.83;;
41263;SDS011;26998;48.714;9.414;2023-04-03T04:20:05;5.93;;;2.50;;
41263;SDS011;26998;48.714;9.414;2023-04-03T04:22:32;3.13;;;2.53;;
41263;SDS011;26998;48.714;9.414;2023-04-03T04:24:59;3.30;;;2.58;;
41263;SDS011;26998;48.714;9.414;2023-04-03T04:27:26;3.70;;;3.05;;
41263;SDS011;26998;48.714;9.414;2023-04-03T04:29:52;3.53;;;2.55;;
41263;SDS011;26998;48.714;9.414;2023-04-03T04:32:19;3.80;;;2.88;;
41263;SDS011;26998;48.714;9.414;2023-04-03T04:34:46;5.40;;;2.40;;
41263;SDS011;26998;48.714;9.414;2023-04-03T04:37:12;4.95;;;2.80;;
41263;SDS011;26998;48.714;9.414;2023-04-03T04:39:39;2.72;;;2.53;;
41263;SDS011;26998;48.714;9.414;2023-04-03T04:42:05;6.20;;;3.05;;
41263;SDS011;26998;48.714;9.414;2023-04-03T04:44:32;4.78;;;3.35;;
41263;SDS011;26998;48.714;9.414;2023-04-03T04:46:58;4.45;;;2.90;;
41263;SDS011;26998;48.714;9.414;2023-04-03T04:49:25;6.38;;;2.88;;
41263;SDS011;26998;48.714;9.414;2023-04-03T04:51:52;2.80;;;2.53;;
41263;SDS011;26998;48.714;9.414;2023-04-03T04:54:18;4.13;;;2.65;;
41263;SDS011;26998;48.714;9.414;2023-04-03T04:56:45;4.35;;;2.67;;
41263;SDS011;26998;48.714;9.414;2023-04-03T04:59:12;4.22;;;3.30;;
41263;SDS011;26998;48.714;9.414;2023-04-03T05:01:38;5.38;;;2.70;;
41263;SDS011;26998;48.714;9.414;2023-04-03T05:04:05;4.07;;;2.50;;
41263;SDS011;26998;48.714;9.414;2023-04-03T05:06:31;6.60;;;2.95;;
41263;SDS011;26998;48.714;9.414;2023-04-03T05:08:58;3.25;;;2.47;;
41263;SDS011;26998;48.714;9.414;2023-04-03T05:11:26;4.20;;;2.55;;
41263;SDS011;26998;48.714;9.414;2023-04-03T05:13:52;3.50;;;2.50;;
41263;SDS011;26998;48.714;9.414;2023-04-03T05:16:19;3.97;;;2.95;;
41263;SDS011;26998;48.714;9.414;2023-04-03T05:18:45;2.55;;;2.35;;
41263;SDS011;26998;48.714;9.414;2023-04-03T05:21:12;3.35;;;2.65;;
41263;SDS011;26998;48.714;9.414;2023-04-03T05:23:38;3.17;;;2.83;;
41263;SDS011;26998;48.714;9.414;2023-04-03T05:26:05;3.70;;;2.70;;
41263;SDS011;26998;48.714;9.414;2023-04-03T05:28:32;3.67;;;2.65;;
41263;SDS011;26998;48.714;9.414;2023-04-03T05:30:58;3.83;;;2.60;;
41263;SDS011;26998;48.714;9.414;2023-04-03T05:33:25;3.47;;;2.40;;
41263;SDS011;26998;48.714;9.414;2023-04-03T05:35:53;2.30;;;2.08;;
41263;SDS011;26998;48.714;9.414;2023-04-03T05:38:20;3.70;;;2.30;;
41263;SDS011;26998;48.714;9.414;2023-04-03T05:40:46;3.40;;;2.53;;
41263;SDS011;26998;48.714;9.414;2023-04-03T05:43:13;2.63;;;2.30;;
41263;SDS011;26998;48.714;9.414;2023-04-03T05:45:41;6.13;;;2.67;;
41263;SDS011;26998;48.714;9.414;2023-04-03T05:50:39;2.22;;;2.03;;
41263;SDS011;26998;48.714;9.414;2023-04-03T05:53:05;5.35;;;2.50;;
41263;SDS011;26998;48.714;9.414;2023-04-03T05:55:32;3.92;;;2.33;;
41263;SDS011;26998;48.714;9.414;2023-04-03T05:57:58;3.92;;;2.63;;
41263;SDS011;26998;48.714;9.414;2023-04-03T06:00:25;3.95;;;2.58;;
41263;SDS011;26998;48.714;9.414;2023-04-03T06:02:51;5.40;;;3.00;;
41263;SDS011;26998;48.714;9.414;2023-04-03T06:05:18;4.00;;;2.58;;
41263;SDS011;26998;48.714;9.414;2023-04-03T06:07:45;3.67;;;2.30;;
41263;SDS011;26998;48.714;9.414;2023-04-03T06:10:12;3.97;;;2.80;;
41263;SDS011;26998;48.714;9.414;2023-04-03T06:12:39;2.78;;;2.28;;
41263;SDS011;26998;48.714;9.414;2023-04-03T06:15:06;4.22;;;2.58;;
41263;SDS011;26998;48.714;9.414;2023-04-03T06:17:33;3.83;;;2.60;;
41263;SDS011;26998;48.714;9.414;2023-04-03T06:19:59;2.28;;;1.90;;
41263;SDS011;26998;48.714;9.414;2023-04-03T06:22:26;2.33;;;1.98;;
41263;SDS011;26998;48.714;9.414;2023-04-03T06:24:52;3.30;;;1.83;;
41263;SDS011;26998;48.714;9.414;2023-04-03T06:27:19;3.00;;;2.50;;
41263;SDS011;26998;48.714;9.414;2023-04-03T06:29:46;3.38;;;2.42;;
41263;SDS011;26998;48.714;9.414;2023-04-03T06:32:12;4.00;;;3.05;;
41263;SDS011;26998;48.714;9.414;2023-04-03T06:34:39;2.75;;;2.30;;
41263;SDS011;26998;48.714;9.414;2023-04-03T06:37:06;5.35;;;2.60;;
41263;SDS011;26998;48.714;9.414;2023-04-03T06:39:32;6.68;;;3.13;;
41263;SDS011;26998;48.714;9.414;2023-04-03T06:41:59;4.22;;;2.35;;
41263;SDS011;26998;48.714;9.414;2023-04-03T06:44:25;2.53;;;2.17;;
41263;SDS011;26998;48.714;9.414;2023-04-03T06:46:52;5.47;;;2.60;;
41263;SDS011;26998;48.714;9.414;2023-04-03T06:49:19;2.20;;;2.00;;
41263;SDS011;26998;48.714;9.414;2023-04-03T06:51:45;3.90;;;2.65;;
41263;SDS011;26998;48.714;9.414;2023-04-03T06:54:12;2.40;;;1.98;;
41263;SDS011;26998;48.714;9.414;2023-04-03T06:56:39;3.72;;;2.58;;
41263;SDS011;26998;48.714;9.414;2023-04-03T06:59:05;2.47;;;2.22;;
41263;SDS011;26998;48.714;9.414;2023-04-03T07:01:32;5.25;;;2.50;;
41263;SDS011;26998;48.714;9.414;2023-04-03T07:03:59;2.85;;;2.30;;
41263;SDS011;26998;48.714;9.414;2023-04-03T07:06:25;8.00;;;2.20;;
41263;SDS011;26998;48.714;9.414;2023-04-03T07:08:52;2.65;;;1.92;;
41263;SDS011;26998;48.714;9.414;2023-04-03T07:11:19;4.65;;;3.25;;
41263;SDS011;26998;48.714;9.414;2023-04-03T07:13:46;2.40;;;2.20;;
41263;SDS011;26998;48.714;9.414;2023-04-03T07:16:12;2.40;;;2.00;;
41263;SDS011;26998;48.714;9.414;2023-04-03T07:18:39;5.93;;;2.83;;
41263;SDS011;26998;48.714;9.414;2023-04-03T07:21:05;4.07;;;2.30;;
41263;SDS011;26998;48.714;9.414;2023-04-03T07:23:32;3.20;;;2.70;;
41263;SDS011;26998;48.714;9.414;2023-04-03T07:25:59;3.55;;;2.47;;
41263;SDS011;26998;48.714;9.414;2023-04-03T07:28:25;4.78;;;2.38;;
41263;SDS011;26998;48.714;9.414;2023-04-03T07:30:53;3.05;;;2.65;;
41263;SDS011;26998;48.714;9.414;2023-04-03T07:33:27;5.65;;;2.30;;
41263;SDS011;26998;48.714;9.414;2023-04-03T07:35:54;2.83;;;2.53;;
41263;SDS011;26998;48.714;9.414;2023-04-03T07:38:21;4.28;;;2.30;;
41263;SDS011;26998;48.714;9.414;2023-04-03T07:40:48;4.13;;;2.65;;
41263;SDS011;26998;48.714;9.414;2023-04-03T07:43:16;5.80;;;3.10;;
41263;SDS011;26998;48.714;9.414;2023-04-03T07:45:44;4.68;;;2.63;;
41263;SDS011;26998;48.714;9.414;2023-04-03T07:48:11;4.32;;;2.92;;
41263;SDS011;26998;48.714;9.414;2023-04-03T07:50:41;2.85;;;2.20;;
41263;SDS011;26998;48.714;9.414;2023-04-03T07:53:07;5.70;;;2.58;;
41263;SDS011;26998;48.714;9.414;2023-04-03T07:55:35;4.25;;;2.70;;
41263;SDS011;26998;48.714;9.414;2023-04-03T07:58:02;3.13;;;2.38;;
41263;SDS011;26998;48.714;9.414;2023-04-03T08:00:29;5.45;;;2.70;;
41263;SDS011;26998;48.714;9.414;2023-04-03T08:02:55;5.70;;;2.33;;
41263;SDS011;26998;48.714;9.414;2023-04-03T08:05:22;4.53;;;2.85;;
41263;SDS011;26998;48.714;9.414;2023-04-03T08:07:49;6.78;;;2.67;;
41263;SDS011;26998;48.714;9.414;2023-04-03T08:10:15;3.28;;;2.40;;
41263;SDS011;26998;48.714;9.414;2023-04-03T08:12:42;4.07;;;2.55;;
41263;SDS011;26998;48.714;9.414;2023-04-03T08:15:13;5.30;;;2.80;;
41263;SDS011;26998;48.714;9.414;2023-04-03T08:17:40;7.32;;;3.00;;
41263;SDS011;26998;48.714;9.414;2023-04-03T08:20:07;4.22;;;2.38;;
41263;SDS011;26998;48.714;9.414;2023-04-03T08:22:36;4.38;;;3.10;;
41263;SDS011;26998;48.714;9.414;2023-04-03T08:25:02;5.45;;;3.05;;
41263;SDS011;26998;48.714;9.414;2023-04-03T08:27:29;7.43;;;2.92;;
41263;SDS011;26998;48.714;9.414;2023-04-03T08:29:56;2.83;;;2.38;;
41263;SDS011;26998;48.714;9.414;2023-04-03T08:32:23;3.97;;;2.83;;
41263;SDS011;26998;48.714;9.414;2023-04-03T08:34:51;3.65;;;2.50;;
41263;SDS011;26998;48.714;9.414;2023-04-03T08:37:18;6.90;;;3.00;;
41263;SDS011;26998;48.714;9.414;2023-04-03T08:39:44;4.70;;;2.80;;
41263;SDS011;26998;48.714;9.414;2023-04-03T08:42:14;5.78;;;2.85;;
41263;SDS011;26998;48.714;9.414;2023-04-03T08:44:46;5.75;;;2.47;;
41263;SDS011;26998;48.714;9.414;2023-04-03T08:50:12;4.50;;;2.75;;
41263;SDS011;26998;48.714;9.414;2023-04-03T08:52:50;3.83;;;2.40;;
41263;SDS011;26998;48.714;9.414;2023-04-03T08:57:57;3.50;;;2.60;;
41263;SDS011;26998;48.714;9.414;2023-04-03T09:00:32;5.13;;;2.63;;
41263;SDS011;26998;48.714;9.414;2023-04-03T09:03:10;4.55;;;2.63;;
41263;SDS011;26998;48.714;9.414;2023-04-03T09:05:41;7.00;;;2.88;;
41263;SDS011;26998;48.714;9.414;2023-04-03T09:13:57;5.28;;;2.40;;
41263;SDS011;26998;48.714;9.414;2023-04-03T09:16:48;3.67;;;2.50;;
41263;SDS011;26998;48.714;9.414;2023-04-03T09:21:58;2.80;;;2.28;;
41263;SDS011;26998;48.714;9.414;2023-04-03T09:24:28;4.55;;;2.33;;
41263;SDS011;26998;48.714;9.414;2023-04-03T09:27:00;3.17;;;2.45;;
41263;SDS011;26998;48.714;9.414;2023-04-03T09:29:30;4.10;;;2.50;;
41263;SDS011;26998;48.714;9.414;2023-04-03T09:32:00;5.18;;;2.22;;
41263;SDS011;26998;48.714;9.414;2023-04-03T09:34:30;4.38;;;2.58;;
41263;SDS011;26998;48.714;9.414;2023-04-03T09:37:02;1.90;;;1.67;;
41263;SDS011;26998;48.714;9.414;2023-04-03T09:39:30;4.55;;;2.63;;
41263;SDS011;26998;48.714;9.414;2023-04-03T09:41:57;4.68;;;2.00;;
41263;SDS011;26998;48.714;9.414;2023-04-03T09:44:31;3.90;;;2.08;;
41263;SDS011;26998;48.714;9.414;2023-04-03T09:46:59;2.50;;;2.10;;
41263;SDS011;26998;48.714;9.414;2023-04-03T09:49:51;5.22;;;2.17;;
41263;SDS011;26998;48.714;9.414;2023-04-03T09:52:34;2.58;;;1.73;;
41263;SDS011;26998;48.714;9.414;2023-04-03T09:55:45;3.97;;;1.90;;
41263;SDS011;26998;48.714;9.414;2023-04-03T09:57:54;2.50;;;1.90;;
41263;SDS011;26998;48.714;9.414;2023-04-03T10:00:26;3.15;;;2.05;;
41263;SDS011;26998;48.714;9.414;2023-04-03T10:03:01;2.40;;;1.80;;
41263;SDS011;26998;48.714;9.414;2023-04-03T10:05:31;3.92;;;2.33;;
41263;SDS011;26998;48.714;9.414;2023-04-03T10:10:40;2.70;;;1.75;;
41263;SDS011;26998;48.714;9.414;2023-04-03T10:13:16;5.82;;;2.13;;
41263;SDS011;26998;48.714;9.414;2023-04-03T10:15:51;4.90;;;2.25;;
41263;SDS011;26998;48.714;9.414;2023-04-03T10:18:32;1.60;;;1.45;;
41263;SDS011;26998;48.714;9.414;2023-04-03T10:21:10;2.28;;;1.40;;
41263;SDS011;26998;48.714;9.414;2023-04-03T10:24:10;6.43;;;2.00;;
41263;SDS011;26998;48.714;9.414;2023-04-03T10:26:47;4.57;;;2.13;;
41263;SDS011;26998;48.714;9.414;2023-04-03T10:32:50;3.15;;;1.85;;
41263;SDS011;26998;48.714;9.414;2023-04-03T10:35:58;6.70;;;2.40;;
41263;SDS011;26998;48.714;9.414;2023-04-03T10:43:55;4.97;;;2.08;;
41263;SDS011;26998;48.714;9.414;2023-04-03T10:57:39;5.10;;;2.15;;
41263;SDS011;26998;48.714;9.414;2023-04-03T11:00:14;2.10;;;1.60;;
41263;SDS011;26998;48.714;9.414;2023-04-03T11:08:13;2.25;;;1.88;;
41263;SDS011;26998;48.714;9.414;2023-04-03T11:10:44;3.38;;;1.45;;
41263;SDS011;26998;48.714;9.414;2023-04-03T11:14:01;4.47;;;1.85;;
41263;SDS011;26998;48.714;9.414;2023-04-03T11:16:08;2.03;;;1.77;;
41263;SDS011;26998;48.714;9.414;2023-04-03T11:21:43;5.07;;;1.80;;
41263;SDS011;26998;48.714;9.414;2023-04-03T11:24:16;3.13;;;1.75;;
41263;SDS011;26998;48.714;9.414;2023-04-03T11:26:48;2.92;;;1.90;;
41263;SDS011;26998;48.714;9.414;2023-04-03T11:29:21;2.83;;;1.83;;
41263;SDS011;26998;48.714;9.414;2023-04-03T11:32:04;5.80;;;1.83;;
41263;SDS011;26998;48.714;9.414;2023-04-03T11:34:56;2.10;;;1.40;;
41263;SDS011;26998;48.714;9.414;2023-04-03T11:37:41;2.60;;;1.58;;
41263;SDS011;26998;48.714;9.414;2023-04-03T11:42:42;2.05;;;1.67;;
41263;SDS011;26998;48.714;9.414;2023-04-03T11:45:17;4.72;;;1.85;;
41263;SDS011;26998;48.714;9.414;2023-04-03T11:47:49;3.72;;;1.67;;
41263;SDS011;26998;48.714;9.414;2023-04-03T11:51:03;3.65;;;2.03;;
41263;SDS011;26998;48.714;9.414;2023-04-03T12:13:35;5.38;;;1.92;;
41263;SDS011;26998;48.714;9.414;2023-04-03T12:16:30;2.67;;;1.73;;
41263;SDS011;26998;48.714;9.414;2023-04-03T12:19:24;3.03;;;1.90;;
41263;SDS011;26998;48.714;9.414;2023-04-03T12:22:09;3.38;;;2.35;;
41263;SDS011;26998;48.714;9.414;2023-04-03T12:24:39;4.03;;;1.60;;
41263;SDS011;26998;48.714;9.414;2023-04-03T12:27:16;3.67;;;1.63;;
41263;SDS011;26998;48.714;9.414;2023-04-03T12:29:51;2.08;;;1.60;;
41263;SDS011;26998;48.714;9.414;2023-04-03T12:32:32;2.83;;;1.60;;
41263;SDS011;26998;48.714;9.414;2023-04-03T12:37:43;3.88;;;1.75;;
41263;SDS011;26998;48.714;9.414;2023-04-03T12:40:40;3.70;;;1.60;;
41263;SDS011;26998;48.714;9.414;2023-04-03T12:48:32;2.70;;;1.88;;
41263;SDS011;26998;48.714;9.414;2023-04-03T12:51:04;3.72;;;2.53;;
41263;SDS011;26998;48.714;9.414;2023-04-03T12:53:32;2.10;;;1.95;;
41263;SDS011;26998;48.714;9.414;2023-04-03T12:58:53;2.13;;;1.60;;
41263;SDS011;26998;48.714;9.414;2023-04-03T13:01:25;4.72;;;2.20;;
41263;SDS011;26998;48.714;9.414;2023-04-03T13:03:53;2.03;;;1.83;;
41263;SDS011;26998;48.714;9.414;2023-04-03T13:06:30;2.85;;;1.92;;
41263;SDS011;26998;48.714;9.414;2023-04-03T13:12:10;3.58;;;1.80;;
41263;SDS011;26998;48.714;9.414;2023-04-03T13:14:38;2.45;;;1.83;;
41263;SDS011;26998;48.714;9.414;2023-04-03T13:17:10;3.28;;;2.22;;
41263;SDS011;26998;48.714;9.414;2023-04-03T13:19:41;3.08;;;1.67;;
41263;SDS011;26998;48.714;9.414;2023-04-03T13:22:19;1.60;;;1.50;;
41263;SDS011;26998;48.714;9.414;2023-04-03T13:24:54;1.90;;;1.58;;
41263;SDS011;26998;48.714;9.414;2023-04-03T13:27:24;3.63;;;1.83;;
41263;SDS011;26998;48.714;9.414;2023-04-03T13:29:51;5.85;;;1.90;;
41263;SDS011;26998;48.714;9.414;2023-04-03T13:32:23;2.88;;;1.58;;
41263;SDS011;26998;48.714;9.414;2023-04-03T13:34:53;2.88;;;1.90;;
41263;SDS011;26998;48.714;9.414;2023-04-03T13:37:30;3.92;;;2.20;;
41263;SDS011;26998;48.714;9.414;2023-04-03T13:40:08;2.75;;;1.73;;
41263;SDS011;26998;48.714;9.414;2023-04-03T13:42:40;3.45;;;1.63;;
41263;SDS011;26998;48.714;9.414;2023-04-03T13:45:21;3.78;;;2.13;;
41263;SDS011;26998;48.714;9.414;2023-04-03T13:47:51;3.55;;;1.80;;
41263;SDS011;26998;48.714;9.414;2023-04-03T13:50:20;4.70;;;2.20;;
41263;SDS011;26998;48.714;9.414;2023-04-03T13:52:51;2.53;;;1.83;;
41263;SDS011;26998;48.714;9.414;2023-04-03T13:55:22;3.78;;;2.00;;
41263;SDS011;26998;48.714;9.414;2023-04-03T14:03:00;2.97;;;1.88;;
41263;SDS011;26998;48.714;9.414;2023-04-03T14:05:27;3.25;;;2.10;;
41263;SDS011;26998;48.714;9.414;2023-04-03T14:07:54;4.63;;;2.10;;
41263;SDS011;26998;48.714;9.414;2023-04-03T14:10:21;2.58;;;1.88;;
41263;SDS011;26998;48.714;9.414;2023-04-03T14:12:48;2.58;;;1.80;;
41263;SDS011;26998;48.714;9.414;2023-04-03T14:15:18;4.28;;;1.95;;
41263;SDS011;26998;48.714;9.414;2023-04-03T14:17:48;2.97;;;2.10;;
41263;SDS011;26998;48.714;9.414;2023-04-03T14:20:17;4.90;;;2.20;;
41263;SDS011;26998;48.714;9.414;2023-04-03T14:22:46;7.18;;;3.00;;
41263;SDS011;26998;48.714;9.414;2023-04-03T14:25:12;3.45;;;2.00;;
41263;SDS011;26998;48.714;9.414;2023-04-03T14:27:40;4.88;;;2.30;;
41263;SDS011;26998;48.714;9.414;2023-04-03T14:30:12;2.15;;;1.50;;
41263;SDS011;26998;48.714;9.414;2023-04-03T14:32:42;3.95;;;1.60;;
41263;SDS011;26998;48.714;9.414;2023-04-03T14:35:09;2.13;;;1.80;;
41263;SDS011;26998;48.714;9.414;2023-04-03T14:37:36;3.30;;;1.90;;
41263;SDS011;26998;48.714;9.414;2023-04-03T14:40:03;2.25;;;2.00;;
41263;SDS011;26998;48.714;9.414;2023-04-03T14:42:32;2.47;;;1.80;;
41263;SDS011;26998;48.714;9.414;2023-04-03T14:45:03;3.83;;;1.95;;
41263;SDS011;26998;48.714;9.414;2023-04-03T14:47:31;2.95;;;2.00;;
41263;SDS011;26998;48.714;9.414;2023-04-03T14:50:01;2.42;;;1.75;;
41263;SDS011;26998;48.714;9.414;2023-04-03T14:52:31;3.00;;;2.03;;
41263;SDS011;26998;48.714;9.414;2023-04-03T14:55:00;2.35;;;1.88;;
41263;SDS011;26998;48.714;9.414;2023-04-03T14:57:27;2.47;;;1.88;;
41263;SDS011;26998;48.714;9.414;2023-04-03T14:59:55;2.55;;;2.10;;
41263;SDS011;26998;48.714;9.414;2023-04-03T15:02:27;4.60;;;2.10;;
41263;SDS011;26998;48.714;9.414;2023-04-03T15:04:57;3.67;;;2.15;;
41263;SDS011;26998;48.714;9.414;2023-04-03T15:07:25;5.15;;;2.53;;
41263;SDS011;26998;48.714;9.414;2023-04-03T15:09:54;2.33;;;1.85;;
41263;SDS011;26998;48.714;9.414;2023-04-03T15:12:21;2.72;;;1.92;;
41263;SDS011;26998;48.714;9.414;2023-04-03T15:14:48;3.60;;;1.90;;
41263;SDS011;26998;48.714;9.414;2023-04-03T15:17:26;7.43;;;2.55;;
41263;SDS011;26998;48.714;9.414;2023-04-03T15:19:52;5.10;;;2.47;;
41263;SDS011;26998;48.714;9.414;2023-04-03T15:22:19;3.53;;;2.10;;
41263;SDS011;26998;48.714;9.414;2023-04-03T15:24:46;2.60;;;2.00;;
41263;SDS011;26998;48.714;9.414;2023-04-03T15:27:13;2.30;;;2.00;;
41263;SDS011;26998;48.714;9.414;2023-04-03T15:29:41;4.00;;;2.00;;
41263;SDS011;26998;48.714;9.414;2023-04-03T15:32:10;5.90;;;2.40;;
41263;SDS011;26998;48.714;9.414;2023-04-03T15:34:38;3.83;;;2.35;;
41263;SDS011;26998;48.714;9.414;2023-04-03T15:37:05;3.33;;;1.80;;
41263;SDS011;26998;48.714;9.414;2023-04-03T15:39:32;2.10;;;1.70;;
41263;SDS011;26998;48.714;9.414;2023-04-03T15:41:59;2.55;;;1.88;;
41263;SDS011;26998;48.714;9.414;2023-04-03T15:44:25;3.67;;;1.85;;
41263;SDS011;26998;48.714;9.414;2023-04-03T15:46:52;7.47;;;2.10;;
41263;SDS011;26998;48.714;9.414;2023-04-03T15:49:19;3.47;;;1.77;;
41263;SDS011;26998;48.714;9.414;2023-04-03T15:51:47;4.47;;;2.05;;
41263;SDS011;26998;48.714;9.414;2023-04-03T15:54:14;3.63;;;1.83;;
41263;SDS011;26998;48.714;9.414;2023-04-03T15:56:41;2.92;;;1.90;;
41263;SDS011;26998;48.714;9.414;2023-04-03T15:59:08;2.92;;;2.13;;
41263;SDS011;26998;48.714;9.414;2023-04-03T16:01:35;5.07;;;2.13;;
41263;SDS011;26998;48.714;9.414;2023-04-03T16:04:03;3.83;;;2.13;;
41263;SDS011;26998;48.714;9.414;2023-04-03T16:06:30;1.98;;;1.45;;
41263;SDS011;26998;48.714;9.414;2023-04-03T16:08:57;1.98;;;1.80;;
41263;SDS011;26998;48.714;9.414;2023-04-03T16:11:24;2.80;;;1.75;;
41263;SDS011;26998;48.714;9.414;2023-04-03T16:13:52;3.17;;;1.83;;
41263;SDS011;26998;48.714;9.414;2023-04-03T16:16:19;2.15;;;1.85;;
41263;SDS011;26998;48.714;9.414;2023-04-03T16:18:46;2.63;;;1.80;;
41263;SDS011;26998;48.714;9.414;2023-04-03T16:21:14;3.08;;;2.28;;
41263;SDS011;26998;48.714;9.414;2023-04-03T16:23:43;4.32;;;2.00;;
41263;SDS011;26998;48.714;9.414;2023-04-03T16:26:10;4.38;;;2.25;;
41263;SDS011;26998;48.714;9.414;2023-04-03T16:28:37;4.22;;;1.80;;
41263;SDS011;26998;48.714;9.414;2023-04-03T16:31:05;3.08;;;1.80;;
41263;SDS011;26998;48.714;9.414;2023-04-03T16:33:33;2.97;;;1.92;;
41263;SDS011;26998;48.714;9.414;2023-04-03T16:36:03;2.88;;;1.70;;
41263;SDS011;26998;48.714;9.414;2023-04-03T16:38:31;4.47;;;2.00;;
41263;SDS011;26998;48.714;9.414;2023-04-03T16:40:57;2.78;;;1.90;;
41263;SDS011;26998;48.714;9.414;2023-04-03T16:43:24;5.22;;;2.05;;
41263;SDS011;26998;48.714;9.414;2023-04-03T16:45:52;2.95;;;2.10;;